KFFL/FFL METAR and TAF weather

Enter ICAO airport designator
Station Type Date Time Source
KFFL METAR 2021/09/24 06:55 UTC NOAA

KFFL 240655Z AUTO 20005KT 10SM CLR 12/08 A2998 RMK A01


Station Type Date Time Source
KFFL Decoded METAR 2021/09/24 06:55 UTC NOAA

Fair Field, IA, United States (KFFL) 41-03N 091-59W
Sep 24, 2021 - 02:55 AM EDT / 2021.09.24 0655 UTC
Wind: from the SSW (200 degrees) at 6 MPH (5 KT):0
Visibility: 10 mile(s):0
Sky conditions: clear
Temperature: 53 F (12 C)
Dew Point: 46 F (8 C)
Relative Humidity: 76%
Pressure (altimeter): 29.98 in. Hg (1015 hPa)
ob: KFFL 240655Z AUTO 20005KT 10SM CLR 12/08 A2998 RMK A01
cycle: 7

Station Type Date Time Source
KFFL TAF UTC NOAA

Error!

Example: see airport list